sensor_id;sensor_type;location;lat;lon;timestamp;P1;durP1;ratioP1;P2;durP2;ratioP2
9260;SDS011;4667;42.726;23.252;2023-05-10T00:02:03;2.40;;;2.20;;
9260;SDS011;4667;42.726;23.252;2023-05-10T00:04:30;3.17;;;2.40;;
9260;SDS011;4667;42.726;23.252;2023-05-10T00:06:56;2.20;;;2.00;;
9260;SDS011;4667;42.726;23.252;2023-05-10T00:09:23;2.30;;;2.10;;
9260;SDS011;4667;42.726;23.252;2023-05-10T00:11:51;3.53;;;3.23;;
9260;SDS011;4667;42.726;23.252;2023-05-10T00:14:18;3.37;;;2.60;;
9260;SDS011;4667;42.726;23.252;2023-05-10T00:16:47;3.57;;;3.23;;
9260;SDS011;4667;42.726;23.252;2023-05-10T00:19:14;5.10;;;3.00;;
9260;SDS011;4667;42.726;23.252;2023-05-10T00:21:41;3.40;;;2.90;;
9260;SDS011;4667;42.726;23.252;2023-05-10T00:24:07;3.90;;;3.37;;
9260;SDS011;4667;42.726;23.252;2023-05-10T00:26:34;6.50;;;4.23;;
9260;SDS011;4667;42.726;23.252;2023-05-10T00:29:02;4.27;;;3.77;;
9260;SDS011;4667;42.726;23.252;2023-05-10T00:31:29;4.87;;;4.27;;
9260;SDS011;4667;42.726;23.252;2023-05-10T00:33:57;6.03;;;4.77;;
9260;SDS011;4667;42.726;23.252;2023-05-10T00:36:23;6.80;;;3.93;;
9260;SDS011;4667;42.726;23.252;2023-05-10T00:38:51;6.07;;;4.33;;
9260;SDS011;4667;42.726;23.252;2023-05-10T00:41:17;5.03;;;4.07;;
9260;SDS011;4667;42.726;23.252;2023-05-10T00:43:44;5.43;;;3.73;;
9260;SDS011;4667;42.726;23.252;2023-05-10T00:46:12;7.93;;;4.37;;
9260;SDS011;4667;42.726;23.252;2023-05-10T00:48:40;5.47;;;3.97;;
9260;SDS011;4667;42.726;23.252;2023-05-10T00:51:07;4.70;;;4.10;;
9260;SDS011;4667;42.726;23.252;2023-05-10T00:53:34;6.07;;;4.53;;
9260;SDS011;4667;42.726;23.252;2023-05-10T00:56:01;4.90;;;3.90;;
9260;SDS011;4667;42.726;23.252;2023-05-10T00:58:28;8.60;;;4.07;;
9260;SDS011;4667;42.726;23.252;2023-05-10T01:00:56;7.37;;;3.93;;
9260;SDS011;4667;42.726;23.252;2023-05-10T01:03:25;7.13;;;4.73;;
9260;SDS011;4667;42.726;23.252;2023-05-10T01:05:52;4.87;;;4.37;;
9260;SDS011;4667;42.726;23.252;2023-05-10T01:08:20;4.90;;;4.40;;
9260;SDS011;4667;42.726;23.252;2023-05-10T01:10:47;6.93;;;3.83;;
9260;SDS011;4667;42.726;23.252;2023-05-10T01:13:16;5.07;;;4.43;;
9260;SDS011;4667;42.726;23.252;2023-05-10T01:15:51;5.73;;;4.50;;
9260;SDS011;4667;42.726;23.252;2023-05-10T01:18:18;6.17;;;4.57;;
9260;SDS011;4667;42.726;23.252;2023-05-10T01:20:48;7.67;;;5.17;;
9260;SDS011;4667;42.726;23.252;2023-05-10T01:23:30;6.90;;;4.70;;
9260;SDS011;4667;42.726;23.252;2023-05-10T01:26:24;6.57;;;5.43;;
9260;SDS011;4667;42.726;23.252;2023-05-10T01:32:28;6.37;;;4.73;;
9260;SDS011;4667;42.726;23.252;2023-05-10T01:35:00;4.60;;;3.97;;
9260;SDS011;4667;42.726;23.252;2023-05-10T01:37:39;5.73;;;4.70;;
9260;SDS011;4667;42.726;23.252;2023-05-10T01:40:10;4.63;;;4.23;;
9260;SDS011;4667;42.726;23.252;2023-05-10T01:42:46;6.13;;;4.80;;
9260;SDS011;4667;42.726;23.252;2023-05-10T01:45:18;5.73;;;4.07;;
9260;SDS011;4667;42.726;23.252;2023-05-10T01:47:54;4.97;;;4.40;;
9260;SDS011;4667;42.726;23.252;2023-05-10T01:50:29;4.40;;;4.00;;
9260;SDS011;4667;42.726;23.252;2023-05-10T01:52:57;5.17;;;3.53;;
9260;SDS011;4667;42.726;23.252;2023-05-10T01:55:27;5.10;;;4.27;;
9260;SDS011;4667;42.726;23.252;2023-05-10T01:58:00;4.53;;;4.10;;
9260;SDS011;4667;42.726;23.252;2023-05-10T02:00:30;6.40;;;4.90;;
9260;SDS011;4667;42.726;23.252;2023-05-10T02:02:59;4.07;;;3.23;;
9260;SDS011;4667;42.726;23.252;2023-05-10T02:05:30;3.93;;;3.53;;
9260;SDS011;4667;42.726;23.252;2023-05-10T02:07:59;4.03;;;3.20;;
9260;SDS011;4667;42.726;23.252;2023-05-10T02:10:27;5.03;;;3.83;;
9260;SDS011;4667;42.726;23.252;2023-05-10T02:12:55;4.03;;;3.17;;
9260;SDS011;4667;42.726;23.252;2023-05-10T02:15:25;4.47;;;3.30;;
9260;SDS011;4667;42.726;23.252;2023-05-10T02:17:54;4.80;;;3.70;;
9260;SDS011;4667;42.726;23.252;2023-05-10T02:20:24;5.23;;;4.27;;
9260;SDS011;4667;42.726;23.252;2023-05-10T02:22:53;3.30;;;2.90;;
9260;SDS011;4667;42.726;23.252;2023-05-10T02:25:22;5.07;;;3.90;;
9260;SDS011;4667;42.726;23.252;2023-05-10T02:27:50;4.17;;;3.47;;
9260;SDS011;4667;42.726;23.252;2023-05-10T02:30:20;4.50;;;3.53;;
9260;SDS011;4667;42.726;23.252;2023-05-10T02:32:48;3.90;;;3.60;;
9260;SDS011;4667;42.726;23.252;2023-05-10T02:35:16;6.50;;;3.60;;
9260;SDS011;4667;42.726;23.252;2023-05-10T02:37:45;3.80;;;3.50;;
9260;SDS011;4667;42.726;23.252;2023-05-10T02:40:13;4.27;;;3.50;;
9260;SDS011;4667;42.726;23.252;2023-05-10T02:42:43;3.27;;;2.97;;
9260;SDS011;4667;42.726;23.252;2023-05-10T02:45:14;3.27;;;2.97;;
9260;SDS011;4667;42.726;23.252;2023-05-10T02:47:44;4.07;;;3.07;;
9260;SDS011;4667;42.726;23.252;2023-05-10T02:50:11;5.10;;;4.10;;
9260;SDS011;4667;42.726;23.252;2023-05-10T02:52:39;3.57;;;3.27;;
9260;SDS011;4667;42.726;23.252;2023-05-10T02:55:11;4.63;;;3.47;;
9260;SDS011;4667;42.726;23.252;2023-05-10T02:57:41;3.30;;;3.00;;
9260;SDS011;4667;42.726;23.252;2023-05-10T03:00:11;3.40;;;3.10;;
9260;SDS011;4667;42.726;23.252;2023-05-10T03:02:38;3.47;;;3.17;;
9260;SDS011;4667;42.726;23.252;2023-05-10T03:05:10;4.90;;;3.00;;
9260;SDS011;4667;42.726;23.252;2023-05-10T03:07:37;3.67;;;3.00;;
9260;SDS011;4667;42.726;23.252;2023-05-10T03:10:05;5.33;;;3.30;;
9260;SDS011;4667;42.726;23.252;2023-05-10T03:12:37;3.10;;;2.80;;
9260;SDS011;4667;42.726;23.252;2023-05-10T03:15:26;3.80;;;3.27;;
9260;SDS011;4667;42.726;23.252;2023-05-10T03:18:04;3.97;;;3.20;;
9260;SDS011;4667;42.726;23.252;2023-05-10T03:20:36;4.43;;;2.97;;
9260;SDS011;4667;42.726;23.252;2023-05-10T03:23:11;3.70;;;3.30;;
9260;SDS011;4667;42.726;23.252;2023-05-10T03:25:44;3.67;;;3.23;;
9260;SDS011;4667;42.726;23.252;2023-05-10T03:28:15;4.67;;;3.47;;
9260;SDS011;4667;42.726;23.252;2023-05-10T03:30:44;3.83;;;3.30;;
9260;SDS011;4667;42.726;23.252;2023-05-10T03:33:12;3.77;;;3.37;;
9260;SDS011;4667;42.726;23.252;2023-05-10T03:35:39;6.00;;;3.50;;
9260;SDS011;4667;42.726;23.252;2023-05-10T03:38:06;3.13;;;2.83;;
9260;SDS011;4667;42.726;23.252;2023-05-10T03:40:33;5.07;;;3.50;;
9260;SDS011;4667;42.726;23.252;2023-05-10T03:42:59;5.13;;;3.00;;
9260;SDS011;4667;42.726;23.252;2023-05-10T03:45:27;4.47;;;3.00;;
9260;SDS011;4667;42.726;23.252;2023-05-10T03:47:54;3.90;;;2.93;;
9260;SDS011;4667;42.726;23.252;2023-05-10T03:50:21;4.33;;;2.87;;
9260;SDS011;4667;42.726;23.252;2023-05-10T03:52:48;4.40;;;3.23;;
9260;SDS011;4667;42.726;23.252;2023-05-10T03:55:15;3.57;;;3.20;;
9260;SDS011;4667;42.726;23.252;2023-05-10T03:57:42;5.00;;;3.27;;
9260;SDS011;4667;42.726;23.252;2023-05-10T04:00:09;3.77;;;3.43;;
9260;SDS011;4667;42.726;23.252;2023-05-10T04:02:44;3.30;;;3.03;;
9260;SDS011;4667;42.726;23.252;2023-05-10T04:05:11;5.33;;;3.70;;
9260;SDS011;4667;42.726;23.252;2023-05-10T04:07:40;3.57;;;3.00;;
9260;SDS011;4667;42.726;23.252;2023-05-10T04:10:09;4.43;;;3.47;;
9260;SDS011;4667;42.726;23.252;2023-05-10T04:12:37;3.90;;;3.50;;
9260;SDS011;4667;42.726;23.252;2023-05-10T04:15:04;3.97;;;3.43;;
9260;SDS011;4667;42.726;23.252;2023-05-10T04:17:32;3.93;;;3.50;;
9260;SDS011;4667;42.726;23.252;2023-05-10T04:20:00;4.20;;;3.80;;
9260;SDS011;4667;42.726;23.252;2023-05-10T04:22:27;4.53;;;3.70;;
9260;SDS011;4667;42.726;23.252;2023-05-10T04:24:54;21.70;;;4.77;;
9260;SDS011;4667;42.726;23.252;2023-05-10T04:27:20;18.33;;;4.43;;
9260;SDS011;4667;42.726;23.252;2023-05-10T04:29:47;8.07;;;3.07;;
9260;SDS011;4667;42.726;23.252;2023-05-10T04:32:15;3.87;;;3.47;;
9260;SDS011;4667;42.726;23.252;2023-05-10T04:34:42;4.30;;;3.60;;
9260;SDS011;4667;42.726;23.252;2023-05-10T04:37:10;3.80;;;3.23;;
9260;SDS011;4667;42.726;23.252;2023-05-10T04:39:37;3.80;;;3.20;;
9260;SDS011;4667;42.726;23.252;2023-05-10T04:42:04;3.93;;;3.50;;
9260;SDS011;4667;42.726;23.252;2023-05-10T04:44:32;4.60;;;3.70;;
9260;SDS011;4667;42.726;23.252;2023-05-10T04:46:59;3.97;;;3.60;;
9260;SDS011;4667;42.726;23.252;2023-05-10T04:49:29;6.97;;;4.27;;
9260;SDS011;4667;42.726;23.252;2023-05-10T04:51:56;4.77;;;3.37;;
9260;SDS011;4667;42.726;23.252;2023-05-10T04:54:24;4.47;;;3.63;;
9260;SDS011;4667;42.726;23.252;2023-05-10T04:56:50;5.87;;;3.80;;
9260;SDS011;4667;42.726;23.252;2023-05-10T04:59:17;7.00;;;4.10;;
9260;SDS011;4667;42.726;23.252;2023-05-10T05:01:44;7.13;;;4.33;;
9260;SDS011;4667;42.726;23.252;2023-05-10T05:04:11;4.57;;;3.50;;
9260;SDS011;4667;42.726;23.252;2023-05-10T05:06:58;4.23;;;3.40;;
9260;SDS011;4667;42.726;23.252;2023-05-10T05:09:26;4.87;;;3.93;;
9260;SDS011;4667;42.726;23.252;2023-05-10T05:11:53;5.77;;;3.90;;
9260;SDS011;4667;42.726;23.252;2023-05-10T05:14:20;4.87;;;3.13;;
9260;SDS011;4667;42.726;23.252;2023-05-10T08:22:56;7.00;;;4.83;;
9260;SDS011;4667;42.726;23.252;2023-05-10T08:25:22;6.10;;;5.50;;
9260;SDS011;4667;42.726;23.252;2023-05-10T08:27:49;5.93;;;4.93;;
9260;SDS011;4667;42.726;23.252;2023-05-10T08:30:17;7.73;;;5.03;;
9260;SDS011;4667;42.726;23.252;2023-05-10T08:32:44;6.70;;;4.97;;
9260;SDS011;4667;42.726;23.252;2023-05-10T08:35:10;7.40;;;5.33;;
9260;SDS011;4667;42.726;23.252;2023-05-10T08:37:37;7.23;;;5.40;;
9260;SDS011;4667;42.726;23.252;2023-05-10T08:40:06;6.37;;;4.67;;
9260;SDS011;4667;42.726;23.252;2023-05-10T08:42:36;7.80;;;5.23;;
9260;SDS011;4667;42.726;23.252;2023-05-10T08:45:06;6.23;;;4.97;;
9260;SDS011;4667;42.726;23.252;2023-05-10T08:47:34;7.20;;;4.83;;
9260;SDS011;4667;42.726;23.252;2023-05-10T08:50:03;6.67;;;5.23;;
9260;SDS011;4667;42.726;23.252;2023-05-10T08:52:31;5.10;;;4.20;;
9260;SDS011;4667;42.726;23.252;2023-05-10T08:55:06;5.97;;;4.80;;
9260;SDS011;4667;42.726;23.252;2023-05-10T08:57:33;5.30;;;4.50;;
9260;SDS011;4667;42.726;23.252;2023-05-10T09:00:01;5.00;;;4.37;;
9260;SDS011;4667;42.726;23.252;2023-05-10T09:02:28;4.70;;;4.30;;
9260;SDS011;4667;42.726;23.252;2023-05-10T09:05:02;5.07;;;4.37;;
9260;SDS011;4667;42.726;23.252;2023-05-10T09:07:29;6.10;;;4.30;;
9260;SDS011;4667;42.726;23.252;2023-05-10T09:09:59;8.23;;;5.23;;
9260;SDS011;4667;42.726;23.252;2023-05-10T09:12:27;7.50;;;5.00;;
9260;SDS011;4667;42.726;23.252;2023-05-10T09:14:54;6.50;;;4.40;;
9260;SDS011;4667;42.726;23.252;2023-05-10T09:17:22;7.07;;;4.30;;
9260;SDS011;4667;42.726;23.252;2023-05-10T09:19:56;7.30;;;4.93;;
9260;SDS011;4667;42.726;23.252;2023-05-10T09:22:24;5.13;;;4.60;;
9260;SDS011;4667;42.726;23.252;2023-05-10T09:25:03;4.53;;;4.13;;
9260;SDS011;4667;42.726;23.252;2023-05-10T09:27:32;6.37;;;4.20;;
9260;SDS011;4667;42.726;23.252;2023-05-10T09:29:58;6.93;;;4.90;;
9260;SDS011;4667;42.726;23.252;2023-05-10T09:32:35;9.53;;;5.00;;
9260;SDS011;4667;42.726;23.252;2023-05-10T09:35:06;4.97;;;4.47;;
9260;SDS011;4667;42.726;23.252;2023-05-10T09:37:33;6.37;;;5.70;;
9260;SDS011;4667;42.726;23.252;2023-05-10T09:40:00;6.27;;;5.03;;
9260;SDS011;4667;42.726;23.252;2023-05-10T09:42:31;6.27;;;4.93;;
9260;SDS011;4667;42.726;23.252;2023-05-10T09:45:00;6.10;;;5.30;;
9260;SDS011;4667;42.726;23.252;2023-05-10T09:47:28;8.47;;;5.20;;
9260;SDS011;4667;42.726;23.252;2023-05-10T09:49:55;6.87;;;5.03;;
9260;SDS011;4667;42.726;23.252;2023-05-10T09:52:28;6.17;;;4.87;;
9260;SDS011;4667;42.726;23.252;2023-05-10T09:54:55;5.53;;;4.90;;
9260;SDS011;4667;42.726;23.252;2023-05-10T09:57:22;5.17;;;4.67;;
9260;SDS011;4667;42.726;23.252;2023-05-10T09:59:51;6.73;;;5.20;;
9260;SDS011;4667;42.726;23.252;2023-05-10T10:02:19;5.57;;;4.90;;
9260;SDS011;4667;42.726;23.252;2023-05-10T10:04:48;5.93;;;5.03;;
9260;SDS011;4667;42.726;23.252;2023-05-10T10:07:17;8.67;;;5.03;;
9260;SDS011;4667;42.726;23.252;2023-05-10T10:09:51;5.63;;;4.77;;
9260;SDS011;4667;42.726;23.252;2023-05-10T10:12:22;6.67;;;4.87;;
9260;SDS011;4667;42.726;23.252;2023-05-10T10:14:50;6.83;;;4.53;;
9260;SDS011;4667;42.726;23.252;2023-05-10T10:17:20;6.40;;;4.93;;
9260;SDS011;4667;42.726;23.252;2023-05-10T10:19:47;4.90;;;4.40;;
9260;SDS011;4667;42.726;23.252;2023-05-10T10:22:15;7.63;;;5.47;;
9260;SDS011;4667;42.726;23.252;2023-05-10T10:24:43;7.47;;;4.80;;
9260;SDS011;4667;42.726;23.252;2023-05-10T10:27:19;7.50;;;4.90;;
9260;SDS011;4667;42.726;23.252;2023-05-10T10:30:00;7.00;;;4.33;;
9260;SDS011;4667;42.726;23.252;2023-05-10T10:32:35;7.20;;;5.70;;
9260;SDS011;4667;42.726;23.252;2023-05-10T10:35:15;4.93;;;4.47;;
9260;SDS011;4667;42.726;23.252;2023-05-10T10:37:43;5.03;;;4.40;;
9260;SDS011;4667;42.726;23.252;2023-05-10T10:40:24;7.17;;;5.10;;
9260;SDS011;4667;42.726;23.252;2023-05-10T10:42:52;9.77;;;5.43;;
9260;SDS011;4667;42.726;23.252;2023-05-10T10:45:23;6.03;;;4.70;;
9260;SDS011;4667;42.726;23.252;2023-05-10T10:50:52;5.07;;;4.47;;
9260;SDS011;4667;42.726;23.252;2023-05-10T10:53:23;6.27;;;4.00;;
9260;SDS011;4667;42.726;23.252;2023-05-10T10:55:53;7.60;;;4.00;;
9260;SDS011;4667;42.726;23.252;2023-05-10T10:58:31;6.07;;;4.77;;
9260;SDS011;4667;42.726;23.252;2023-05-10T11:01:10;4.50;;;4.10;;
9260;SDS011;4667;42.726;23.252;2023-05-10T11:03:39;4.33;;;3.93;;
9260;SDS011;4667;42.726;23.252;2023-05-10T11:06:06;6.33;;;4.33;;
9260;SDS011;4667;42.726;23.252;2023-05-10T11:08:41;5.40;;;4.17;;
9260;SDS011;4667;42.726;23.252;2023-05-10T11:11:09;4.73;;;4.17;;
9260;SDS011;4667;42.726;23.252;2023-05-10T11:13:41;4.30;;;3.90;;
9260;SDS011;4667;42.726;23.252;2023-05-10T11:16:17;5.80;;;3.97;;
9260;SDS011;4667;42.726;23.252;2023-05-10T11:18:56;5.97;;;3.60;;
9260;SDS011;4667;42.726;23.252;2023-05-10T11:21:25;4.90;;;4.00;;
9260;SDS011;4667;42.726;23.252;2023-05-10T11:23:52;6.23;;;3.90;;
9260;SDS011;4667;42.726;23.252;2023-05-10T11:26:22;4.77;;;4.00;;
9260;SDS011;4667;42.726;23.252;2023-05-10T11:28:50;5.10;;;4.20;;
9260;SDS011;4667;42.726;23.252;2023-05-10T11:31:21;4.43;;;3.93;;
9260;SDS011;4667;42.726;23.252;2023-05-10T11:33:52;6.70;;;3.80;;
9260;SDS011;4667;42.726;23.252;2023-05-10T11:36:20;4.17;;;3.80;;
9260;SDS011;4667;42.726;23.252;2023-05-10T11:38:48;3.43;;;3.13;;
9260;SDS011;4667;42.726;23.252;2023-05-10T11:41:16;3.43;;;3.13;;
9260;SDS011;4667;42.726;23.252;2023-05-10T11:43:46;5.53;;;3.90;;
9260;SDS011;4667;42.726;23.252;2023-05-10T11:46:18;4.20;;;3.40;;
9260;SDS011;4667;42.726;23.252;2023-05-10T11:48:48;4.03;;;3.70;;
9260;SDS011;4667;42.726;23.252;2023-05-10T11:51:19;3.67;;;3.27;;
9260;SDS011;4667;42.726;23.252;2023-05-10T11:53:58;4.90;;;3.83;;
9260;SDS011;4667;42.726;23.252;2023-05-10T11:56:26;13.43;;;4.10;;
9260;SDS011;4667;42.726;23.252;2023-05-10T11:58:57;4.97;;;3.87;;
9260;SDS011;4667;42.726;23.252;2023-05-10T12:01:26;4.80;;;3.40;;
9260;SDS011;4667;42.726;23.252;2023-05-10T12:03:56;6.67;;;3.83;;
9260;SDS011;4667;42.726;23.252;2023-05-10T12:06:28;5.10;;;3.63;;
9260;SDS011;4667;42.726;23.252;2023-05-10T12:08:57;4.10;;;3.60;;
9260;SDS011;4667;42.726;23.252;2023-05-10T12:11:24;4.30;;;3.83;;
9260;SDS011;4667;42.726;23.252;2023-05-10T12:13:52;4.43;;;3.70;;
9260;SDS011;4667;42.726;23.252;2023-05-10T12:16:21;8.03;;;4.30;;
9260;SDS011;4667;42.726;23.252;2023-05-10T12:18:49;3.87;;;3.53;;
9260;SDS011;4667;42.726;23.252;2023-05-10T12:21:18;7.53;;;4.73;;
9260;SDS011;4667;42.726;23.252;2023-05-10T12:23:46;5.30;;;3.90;;
9260;SDS011;4667;42.726;23.252;2023-05-10T12:26:13;4.53;;;3.70;;
9260;SDS011;4667;42.726;23.252;2023-05-10T12:28:40;5.30;;;3.77;;
9260;SDS011;4667;42.726;23.252;2023-05-10T12:31:07;6.70;;;4.73;;
9260;SDS011;4667;42.726;23.252;2023-05-10T12:33:37;7.97;;;4.43;;
9260;SDS011;4667;42.726;23.252;2023-05-10T12:36:07;4.80;;;3.67;;
9260;SDS011;4667;42.726;23.252;2023-05-10T12:38:37;5.17;;;4.00;;
9260;SDS011;4667;42.726;23.252;2023-05-10T12:41:08;5.60;;;4.03;;
9260;SDS011;4667;42.726;23.252;2023-05-10T12:43:36;5.67;;;4.17;;
9260;SDS011;4667;42.726;23.252;2023-05-10T12:46:04;5.13;;;4.20;;
9260;SDS011;4667;42.726;23.252;2023-05-10T12:48:32;5.67;;;3.90;;
